createdAt,value
2022-10-28T00:01:05.135Z,5.97
2022-10-28T00:03:38.929Z,6.25
2022-10-28T00:06:09.935Z,5.22
2022-10-28T00:08:39.168Z,4.72
2022-10-28T00:11:09.979Z,4.50
2022-10-28T00:13:39.967Z,4.90
2022-10-28T00:16:12.450Z,5.55
2022-10-28T00:18:44.634Z,6.25
2022-10-28T00:21:16.909Z,7.72
2022-10-28T00:23:46.350Z,6.88
2022-10-28T00:26:42.299Z,7.50
2022-10-28T00:29:14.595Z,6.22
2022-10-28T00:31:48.246Z,6.63
2022-10-28T00:34:21.381Z,5.82
2022-10-28T00:36:50.853Z,6.45
2022-10-28T00:39:22.121Z,5.82
2022-10-28T00:41:52.992Z,7.57
2022-10-28T00:44:44.565Z,7.78
2022-10-28T00:49:48.329Z,6.50
2022-10-28T00:52:21.862Z,7.68
2022-10-28T00:54:53.635Z,6.88
2022-10-28T00:57:26.990Z,7.10
2022-10-28T00:59:58.906Z,7.65
2022-10-28T01:02:28.030Z,6.53
2022-10-28T01:04:58.494Z,5.88
2022-10-28T01:07:27.538Z,7.28
2022-10-28T01:09:56.688Z,6.72
2022-10-28T01:13:41.764Z,6.68
2022-10-28T01:15:43.465Z,6.15
2022-10-28T01:18:27.354Z,6.95
2022-10-28T01:21:24.101Z,7.43
2022-10-28T01:24:10.029Z,7.75
2022-10-28T01:27:08.472Z,7.15
2022-10-28T01:29:55.822Z,7.05
2022-10-28T01:32:34.105Z,7.47
2022-10-28T01:35:16.193Z,7.05
2022-10-28T01:37:54.103Z,8.00
2022-10-28T01:40:30.703Z,8.05
2022-10-28T01:43:18.249Z,8.57
2022-10-28T01:45:54.359Z,9.23
2022-10-28T01:48:31.946Z,8.88
2022-10-28T01:51:06.520Z,9.00
2022-10-28T01:53:39.529Z,8.48
2022-10-28T01:56:12.082Z,8.77
2022-10-28T01:58:42.662Z,8.52
2022-10-28T02:01:12.511Z,9.05
2022-10-28T02:03:42.990Z,9.13
2022-10-28T02:06:17.752Z,8.48
2022-10-28T02:09:14.881Z,9.63
2022-10-28T02:12:04.804Z,9.07
2022-10-28T02:14:47.910Z,9.13
2022-10-28T02:17:27.471Z,10.43
2022-10-28T02:20:07.790Z,10.32
2022-10-28T02:22:45.212Z,11.25
2022-10-28T02:25:18.872Z,9.00
2022-10-28T02:27:56.199Z,9.95
2022-10-28T02:30:36.114Z,10.63
2022-10-28T02:36:04.818Z,10.95
2022-10-28T02:38:37.292Z,11.75
2022-10-28T02:41:11.584Z,10.50
2022-10-28T02:43:43.903Z,10.85
2022-10-28T02:46:15.934Z,9.73
2022-10-28T02:48:49.431Z,9.40
2022-10-28T02:51:23.070Z,8.27
2022-10-28T02:54:00.454Z,9.63
2022-10-28T02:56:32.934Z,8.35
2022-10-28T02:59:02.169Z,9.00
2022-10-28T03:01:31.180Z,9.57
2022-10-28T03:04:00.209Z,8.48
2022-10-28T03:06:30.605Z,9.15
2022-10-28T03:08:59.622Z,9.38
2022-10-28T03:11:28.628Z,9.27
2022-10-28T03:13:57.573Z,8.73
2022-10-28T03:16:27.756Z,9.13
2022-10-28T03:18:56.987Z,9.40
2022-10-28T03:21:25.939Z,8.23
2022-10-28T03:23:58.208Z,8.77
2022-10-28T03:26:28.286Z,8.98
2022-10-28T03:28:58.366Z,8.75
2022-10-28T03:31:27.382Z,8.50
2022-10-28T03:33:56.495Z,9.32
2022-10-28T03:36:50.296Z,8.55
2022-10-28T03:39:23.306Z,9.57
2022-10-28T03:41:55.732Z,9.15
2022-10-28T03:44:24.788Z,9.32
2022-10-28T03:46:55.722Z,9.73
2022-10-28T03:49:24.838Z,8.40
2022-10-28T03:51:53.793Z,9.20
2022-10-28T03:54:24.339Z,7.70
2022-10-28T03:56:53.358Z,8.38
2022-10-28T03:59:22.935Z,7.38
2022-10-28T04:01:52.138Z,7.13
2022-10-28T04:04:21.458Z,8.15
2022-10-28T04:06:50.632Z,8.18
2022-10-28T04:09:19.737Z,8.75
2022-10-28T04:11:53.323Z,7.93
2022-10-28T04:14:22.331Z,8.80
2022-10-28T04:16:51.331Z,8.18
2022-10-28T04:19:20.421Z,8.30
2022-10-28T04:21:49.465Z,8.00
2022-10-28T04:24:18.493Z,7.38
2022-10-28T04:26:47.472Z,8.00
2022-10-28T04:29:17.986Z,8.10
2022-10-28T04:31:48.720Z,6.17
2022-10-28T04:38:41.324Z,7.03
2022-10-28T04:41:13.084Z,7.38
2022-10-28T04:43:42.097Z,6.03
2022-10-28T04:46:12.581Z,1.00
2022-10-28T04:48:41.565Z,0.23
2022-10-28T04:51:10.716Z,0.10
2022-10-28T04:53:39.715Z,0.20
2022-10-28T04:56:10.115Z,0.20
2022-10-28T04:58:40.462Z,0.20
2022-10-28T05:01:11.111Z,0.10
2022-10-28T05:03:41.638Z,0.10
2022-10-28T05:06:10.704Z,0.10
2022-10-28T05:08:39.714Z,0.20
2022-10-28T05:11:37.513Z,0.20
2022-10-28T05:14:16.407Z,0.25
2022-10-28T05:16:49.845Z,0.20
2022-10-28T05:19:20.292Z,0.10
2022-10-28T05:21:49.277Z,0.20
2022-10-28T05:24:18.261Z,0.30
2022-10-28T05:26:47.272Z,0.28
2022-10-28T05:29:16.268Z,0.20
2022-10-28T05:36:06.495Z,0.20
2022-10-28T05:38:35.601Z,0.10
2022-10-28T05:41:04.745Z,0.25
2022-10-28T05:43:33.807Z,0.20
2022-10-28T05:46:03.931Z,0.30
2022-10-28T05:48:32.923Z,0.20
2022-10-28T05:51:01.935Z,0.20
2022-10-28T05:53:32.347Z,0.30
2022-10-28T05:56:01.414Z,0.20
2022-10-28T05:58:30.382Z,0.30
2022-10-28T06:01:10.581Z,0.20
2022-10-28T06:03:48.298Z,0.20
2022-10-28T06:06:17.469Z,0.40
2022-10-28T06:08:47.933Z,0.32
2022-10-28T06:11:15.403Z,0.20
2022-10-28T06:13:44.371Z,0.30
2022-10-28T06:16:13.410Z,0.20
2022-10-28T06:18:42.549Z,0.30
2022-10-28T06:21:11.791Z,0.30
2022-10-28T06:23:40.936Z,0.20
2022-10-28T06:26:11.494Z,0.30
2022-10-28T06:28:40.578Z,0.30
2022-10-28T06:31:09.816Z,0.30
2022-10-28T06:33:38.909Z,0.45
2022-10-28T06:36:08.528Z,0.30
2022-10-28T06:38:37.569Z,0.30
2022-10-28T06:41:06.572Z,0.22
2022-10-28T06:43:37.067Z,0.30
2022-10-28T06:46:06.368Z,0.40
2022-10-28T06:48:36.887Z,0.20
2022-10-28T06:51:06.405Z,0.30
2022-10-28T06:53:35.479Z,0.40
2022-10-28T06:56:04.801Z,0.30
2022-10-28T06:58:33.840Z,0.35
2022-10-28T07:01:06.644Z,0.30
2022-10-28T07:03:35.863Z,0.20
2022-10-28T07:06:05.271Z,0.30
2022-10-28T07:08:34.470Z,0.40
2022-10-28T07:11:03.758Z,0.28
2022-10-28T07:13:32.942Z,0.40
2022-10-28T07:16:02.622Z,0.25
2022-10-28T07:18:33.051Z,0.40
2022-10-28T07:21:02.880Z,0.70
2022-10-28T07:23:33.203Z,0.47
2022-10-28T07:26:02.686Z,0.40
2022-10-28T07:28:31.780Z,0.50
2022-10-28T07:31:03.020Z,0.45
2022-10-28T07:33:33.479Z,0.40
2022-10-28T07:36:04.733Z,0.70
2022-10-28T07:38:34.495Z,0.38
2022-10-28T07:41:06.221Z,0.50
2022-10-28T07:43:38.110Z,0.50
2022-10-28T07:46:07.777Z,0.30
2022-10-28T07:48:38.958Z,0.40
2022-10-28T07:51:09.547Z,0.52
2022-10-28T07:53:38.974Z,0.50
2022-10-28T07:56:10.253Z,0.30
2022-10-28T08:01:09.779Z,0.60
2022-10-28T08:07:59.465Z,0.45
2022-10-28T08:10:28.625Z,0.40
2022-10-28T08:12:58.343Z,0.47
2022-10-28T08:15:28.801Z,0.45
2022-10-28T08:17:57.966Z,0.50
2022-10-28T08:20:27.027Z,0.50
2022-10-28T08:22:56.545Z,0.60
2022-10-28T08:25:27.200Z,0.70
2022-10-28T08:27:56.214Z,0.67
2022-10-28T08:30:25.200Z,1.00
2022-10-28T08:32:56.472Z,0.68
2022-10-28T08:35:25.838Z,0.60
2022-10-28T08:37:55.193Z,0.80
2022-10-28T08:40:37.919Z,0.60
2022-10-28T08:43:30.372Z,0.90
2022-10-28T08:46:17.536Z,0.80
2022-10-28T08:48:46.578Z,0.68
2022-10-28T08:51:19.004Z,0.50
2022-10-28T08:53:54.762Z,0.75
2022-10-28T08:56:31.540Z,0.50
2022-10-28T08:59:02.609Z,0.80
2022-10-28T09:01:42.483Z,0.50
2022-10-28T09:04:23.123Z,0.60
2022-10-28T09:06:52.177Z,0.47
2022-10-28T09:09:23.377Z,0.60
2022-10-28T09:12:13.221Z,0.52
2022-10-28T09:14:56.266Z,0.68
2022-10-28T09:17:34.478Z,0.55
2022-10-28T09:20:15.713Z,0.50
2022-10-28T09:22:51.947Z,0.60
2022-10-28T09:25:30.091Z,0.70
2022-10-28T09:28:15.893Z,0.57
2022-10-28T09:30:56.101Z,0.60
2022-10-28T09:33:47.379Z,0.55
2022-10-28T09:36:22.843Z,1.27
2022-10-28T09:38:55.268Z,0.88
2022-10-28T09:41:28.580Z,0.65
2022-10-28T09:44:08.894Z,0.80
2022-10-28T09:46:40.267Z,0.85
2022-10-28T09:51:48.474Z,0.82
2022-10-28T09:54:18.676Z,0.93
2022-10-28T09:56:47.935Z,1.10
2022-10-28T09:59:18.441Z,0.80
2022-10-28T10:01:47.859Z,0.87
2022-10-28T10:04:22.792Z,1.17
2022-10-28T10:06:55.590Z,1.15
2022-10-28T10:09:27.998Z,1.10
2022-10-28T10:12:01.822Z,1.27
2022-10-28T10:14:37.518Z,1.05
2022-10-28T10:17:11.312Z,0.88
2022-10-28T10:20:08.631Z,1.10
2022-10-28T10:22:39.693Z,1.67
2022-10-28T10:25:25.513Z,1.05
2022-10-28T10:27:57.725Z,1.10
2022-10-28T10:30:32.508Z,1.02
2022-10-28T10:33:03.562Z,1.10
2022-10-28T10:35:34.604Z,1.40
2022-10-28T10:38:06.642Z,1.60
2022-10-28T10:40:40.742Z,1.35
2022-10-28T10:43:22.944Z,1.17
2022-10-28T10:46:03.116Z,1.80
2022-10-28T10:48:34.409Z,1.30
2022-10-28T10:51:08.393Z,1.77
2022-10-28T10:53:39.116Z,2.10
2022-10-28T10:56:11.573Z,1.83
2022-10-28T10:58:48.427Z,2.20
2022-10-28T11:01:22.232Z,1.50
2022-10-28T11:03:55.130Z,1.52
2022-10-28T11:06:28.139Z,1.50
2022-10-28T11:08:59.593Z,2.50
2022-10-28T11:11:36.909Z,2.20
2022-10-28T11:14:08.640Z,2.10
2022-10-28T11:16:50.727Z,1.98
2022-10-28T11:19:24.296Z,1.80
2022-10-28T11:22:17.266Z,1.60
2022-10-28T11:25:19.924Z,2.40
2022-10-28T11:28:03.237Z,1.45
2022-10-28T11:30:43.605Z,1.92
2022-10-28T11:33:34.443Z,1.85
2022-10-28T11:36:17.510Z,1.95
2022-10-28T11:39:09.566Z,1.60
2022-10-28T11:41:50.366Z,1.88
2022-10-28T11:44:31.603Z,2.33
2022-10-28T11:47:17.328Z,1.85
2022-10-28T11:50:16.857Z,1.60
2022-10-28T11:53:19.256Z,1.83
2022-10-28T11:55:52.284Z,1.90
2022-10-28T11:58:35.476Z,2.35
2022-10-28T12:01:17.207Z,1.92
2022-10-28T12:04:12.388Z,1.95
2022-10-28T12:07:26.245Z,2.47
2022-10-28T12:10:14.542Z,2.10
2022-10-28T12:12:53.243Z,2.20
2022-10-28T12:15:32.894Z,2.03
2022-10-28T12:18:08.489Z,1.98
2022-10-28T12:20:43.646Z,2.45
2022-10-28T12:23:17.841Z,2.03
2022-10-28T12:25:50.744Z,2.40
2022-10-28T12:28:24.334Z,2.47
2022-10-28T12:30:54.988Z,2.30
2022-10-28T12:33:27.103Z,1.70
2022-10-28T12:36:15.522Z,2.28
2022-10-28T12:38:48.738Z,2.05
2022-10-28T12:41:22.516Z,2.20
2022-10-28T12:43:55.962Z,2.45
2022-10-28T12:46:32.033Z,2.47
2022-10-28T12:49:06.720Z,1.90
2022-10-28T12:51:40.422Z,2.10
2022-10-28T12:54:21.802Z,2.00
2022-10-28T12:56:55.382Z,2.15
2022-10-28T12:59:33.819Z,1.70
2022-10-28T13:02:04.424Z,2.20
2022-10-28T13:04:34.190Z,2.10
2022-10-28T13:07:26.739Z,1.92
2022-10-28T13:10:14.242Z,2.38
2022-10-28T13:13:31.436Z,2.72
2022-10-28T13:16:18.318Z,2.40
2022-10-28T13:19:41.543Z,2.38
2022-10-28T13:22:28.549Z,2.35
2022-10-28T13:25:02.496Z,2.45
2022-10-28T13:27:33.480Z,2.20
2022-10-28T13:30:03.819Z,2.88
2022-10-28T13:32:38.819Z,2.72
2022-10-28T13:35:22.123Z,2.28
2022-10-28T13:37:54.243Z,2.72
2022-10-28T13:40:53.610Z,3.40
2022-10-28T13:44:02.745Z,2.40
2022-10-28T13:47:23.693Z,2.33
2022-10-28T13:50:42.168Z,2.58
2022-10-28T13:53:44.836Z,2.38
2022-10-28T13:56:34.472Z,3.00
2022-10-28T13:59:18.032Z,2.35
2022-10-28T14:02:07.780Z,2.45
2022-10-28T14:04:44.049Z,2.60
2022-10-28T14:07:23.708Z,2.50
2022-10-28T14:09:55.903Z,2.80
2022-10-28T14:12:29.279Z,2.55
2022-10-28T14:15:09.008Z,2.40
2022-10-28T14:17:40.552Z,2.50
2022-10-28T14:20:25.675Z,2.60
2022-10-28T14:22:59.397Z,2.47
2022-10-28T14:26:01.083Z,2.95
2022-10-28T14:28:53.216Z,3.33
2022-10-28T14:31:43.219Z,3.13
2022-10-28T14:34:46.963Z,3.20
2022-10-28T14:37:47.774Z,2.78
2022-10-28T14:40:36.101Z,3.00
2022-10-28T14:43:35.763Z,3.05
2022-10-28T14:46:20.110Z,3.45
2022-10-28T14:48:52.752Z,3.55
2022-10-28T14:51:24.940Z,3.28
2022-10-28T14:53:57.894Z,3.00
2022-10-28T14:56:29.184Z,2.67
2022-10-28T14:59:02.016Z,3.00
2022-10-28T15:01:47.536Z,3.03
2022-10-28T15:04:18.987Z,3.08
2022-10-28T15:09:25.278Z,3.05
2022-10-28T15:11:57.239Z,3.53
2022-10-28T15:14:32.450Z,2.72
2022-10-28T15:17:11.055Z,3.53
2022-10-28T15:19:42.376Z,3.38
2022-10-28T15:24:54.480Z,3.67
2022-10-28T15:27:24.702Z,4.15
2022-10-28T15:29:55.922Z,3.72
2022-10-28T15:32:30.761Z,3.45
2022-10-28T15:35:24.011Z,3.60
2022-10-28T15:37:53.629Z,3.08
2022-10-28T15:40:27.975Z,3.63
2022-10-28T15:43:01.391Z,4.10
2022-10-28T15:45:34.391Z,4.30
2022-10-28T15:48:13.736Z,3.72
2022-10-28T15:50:44.326Z,3.88
2022-10-28T15:53:35.378Z,4.03
2022-10-28T15:56:24.958Z,3.50
2022-10-28T15:59:09.164Z,3.83
2022-10-28T16:01:39.908Z,6.32
2022-10-28T16:04:45.003Z,4.03
2022-10-28T16:07:15.586Z,3.80
2022-10-28T16:09:48.229Z,3.90
2022-10-28T16:12:20.006Z,3.92
2022-10-28T16:14:55.246Z,4.25
2022-10-28T16:17:27.280Z,3.53
2022-10-28T16:19:59.636Z,4.18
2022-10-28T16:22:32.227Z,9.75
2022-10-28T16:25:01.353Z,3.85
2022-10-28T16:27:33.294Z,6.15
2022-10-28T16:30:02.310Z,3.83
2022-10-28T16:32:37.654Z,5.88
2022-10-28T16:35:15.378Z,7.90
2022-10-28T16:37:49.526Z,3.90
2022-10-28T16:43:16.556Z,4.57
2022-10-28T16:45:45.583Z,3.50
2022-10-28T16:48:16.446Z,4.80
2022-10-28T16:50:49.063Z,4.47
2022-10-28T16:53:20.065Z,5.10
2022-10-28T16:55:49.496Z,5.47
2022-10-28T16:58:21.826Z,4.55
2022-10-28T17:00:56.026Z,5.35
2022-10-28T17:05:53.900Z,4.15
2022-10-28T17:08:49.028Z,4.53
2022-10-28T17:11:16.233Z,6.10
2022-10-28T17:13:45.294Z,4.57
2022-10-28T17:16:14.297Z,5.45
2022-10-28T17:18:43.679Z,4.22
2022-10-28T17:21:12.770Z,5.63
2022-10-28T17:23:44.686Z,4.80
2022-10-28T17:26:13.660Z,4.22
2022-10-28T17:28:42.709Z,4.55
2022-10-28T17:31:11.870Z,5.75
2022-10-28T17:33:40.883Z,6.55
2022-10-28T17:36:10.684Z,5.43
2022-10-28T17:38:39.766Z,4.80
2022-10-28T17:41:10.234Z,4.70
2022-10-28T17:43:39.233Z,6.07
2022-10-28T17:46:09.097Z,7.85
2022-10-28T17:48:39.757Z,6.60
2022-10-28T17:51:08.971Z,5.28
2022-10-28T17:53:38.099Z,4.97
2022-10-28T17:56:09.823Z,5.30
2022-10-28T17:58:39.005Z,5.60
2022-10-28T18:01:09.687Z,4.78
2022-10-28T18:03:39.451Z,4.90
2022-10-28T18:06:11.924Z,5.15
2022-10-28T18:08:43.834Z,4.28
2022-10-28T18:11:18.215Z,5.18
2022-10-28T18:13:50.028Z,4.90
2022-10-28T18:16:21.980Z,9.18
2022-10-28T18:18:51.606Z,8.35
2022-10-28T18:21:21.313Z,6.20
2022-10-28T18:23:52.737Z,6.55
2022-10-28T18:28:52.052Z,5.53
2022-10-28T18:31:21.695Z,5.50
2022-10-28T18:33:51.785Z,10.43
2022-10-28T18:36:22.688Z,5.18
2022-10-28T18:38:52.663Z,5.47
2022-10-28T18:41:25.628Z,5.38
2022-10-28T18:43:55.304Z,7.65
2022-10-28T18:46:25.570Z,4.80
2022-10-28T18:48:54.869Z,6.05
2022-10-28T18:51:24.176Z,5.80
2022-10-28T18:53:55.100Z,6.32
2022-10-28T18:56:29.176Z,5.63
2022-10-28T18:58:59.293Z,6.22
2022-10-28T19:01:30.042Z,5.25
2022-10-28T19:04:00.454Z,6.72
2022-10-28T19:06:32.668Z,5.18
2022-10-28T19:09:04.701Z,6.20
2022-10-28T19:11:36.043Z,5.22
2022-10-28T19:14:06.770Z,9.73
2022-10-28T19:16:36.195Z,13.32
2022-10-28T19:19:06.180Z,8.02
2022-10-28T19:21:35.497Z,5.07
2022-10-28T19:24:05.442Z,4.53
2022-10-28T19:26:36.588Z,5.20
2022-10-28T19:29:06.330Z,4.32
2022-10-28T19:31:38.743Z,5.00
2022-10-28T19:34:08.031Z,4.22
2022-10-28T19:36:37.159Z,4.05
2022-10-28T19:39:06.256Z,4.30
2022-10-28T19:41:36.760Z,4.53
2022-10-28T19:44:06.083Z,4.13
2022-10-28T19:46:36.612Z,4.38
2022-10-28T19:49:07.310Z,4.30
2022-10-28T19:51:37.969Z,4.78
2022-10-28T19:54:09.159Z,4.55
2022-10-28T19:56:40.214Z,4.25
2022-10-28T19:59:09.472Z,4.13
2022-10-28T20:01:40.730Z,14.95
2022-10-28T20:04:11.273Z,4.95
2022-10-28T20:06:41.578Z,6.37
2022-10-28T20:09:10.858Z,5.07
2022-10-28T20:11:41.474Z,6.63
2022-10-28T20:14:14.193Z,5.10
2022-10-28T20:16:45.373Z,3.80
2022-10-28T20:19:14.441Z,5.68
2022-10-28T20:21:45.120Z,5.07
2022-10-28T20:24:14.194Z,5.97
2022-10-28T20:26:44.608Z,4.97
2022-10-28T20:29:13.762Z,5.13
2022-10-28T20:31:42.843Z,5.93
2022-10-28T20:34:11.885Z,4.82
2022-10-28T20:36:44.077Z,4.65
2022-10-28T20:39:15.500Z,5.65
2022-10-28T20:44:16.062Z,5.60
2022-10-28T20:46:48.165Z,6.25
2022-10-28T20:49:17.449Z,5.88
2022-10-28T20:51:46.552Z,4.95
2022-10-28T20:54:15.684Z,4.80
2022-10-28T20:56:46.146Z,4.90
2022-10-28T20:59:15.187Z,4.13
2022-10-28T21:01:44.393Z,5.28
2022-10-28T21:04:13.663Z,5.43
2022-10-28T21:06:42.775Z,5.45
2022-10-28T21:09:12.224Z,5.63
2022-10-28T21:11:41.354Z,4.80
2022-10-28T21:14:12.725Z,5.90
2022-10-28T21:19:10.511Z,4.57
2022-10-28T21:21:39.699Z,5.22
2022-10-28T21:24:09.301Z,5.72
2022-10-28T21:26:38.316Z,4.85
2022-10-28T21:29:07.489Z,5.07
2022-10-28T21:31:37.882Z,4.68
2022-10-28T21:34:08.469Z,3.90
2022-10-28T21:36:37.732Z,4.30
2022-10-28T21:39:14.789Z,4.10
2022-10-28T21:41:43.788Z,5.05
2022-10-28T21:44:12.943Z,4.80
2022-10-28T21:47:05.908Z,5.40
2022-10-28T21:49:38.049Z,4.28
2022-10-28T21:52:23.619Z,4.75
2022-10-28T21:54:54.893Z,5.10
2022-10-28T21:57:32.728Z,5.40
2022-10-28T22:00:01.698Z,5.50
2022-10-28T22:02:32.373Z,4.68
2022-10-28T22:05:01.545Z,5.68
2022-10-28T22:07:31.249Z,5.25
2022-10-28T22:10:00.278Z,5.03
2022-10-28T22:12:30.821Z,4.07
2022-10-28T22:15:02.267Z,5.30
2022-10-28T22:20:02.845Z,5.57
2022-10-28T22:22:45.004Z,4.55
2022-10-28T22:25:17.013Z,4.40
2022-10-28T22:27:49.672Z,4.32
2022-10-28T22:30:22.653Z,4.25
2022-10-28T22:32:56.358Z,4.68
2022-10-28T22:35:35.174Z,4.63
2022-10-28T22:38:13.664Z,4.45
2022-10-28T22:40:45.283Z,5.13
2022-10-28T22:43:14.281Z,4.00
2022-10-28T22:48:49.164Z,4.50
2022-10-28T22:51:18.279Z,3.88
2022-10-28T22:53:47.635Z,5.13
2022-10-28T22:56:20.299Z,3.70
2022-10-28T22:58:49.584Z,5.30
2022-10-28T23:01:20.252Z,4.55
2022-10-28T23:03:51.840Z,4.28
2022-10-28T23:06:22.587Z,4.45
2022-10-28T23:08:51.809Z,4.93
2022-10-28T23:11:22.561Z,5.00
2022-10-28T23:13:53.569Z,5.18
2022-10-28T23:16:23.989Z,4.47
2022-10-28T23:18:56.989Z,5.68
2022-10-28T23:21:36.654Z,5.13
2022-10-28T23:24:15.115Z,4.45
2022-10-28T23:26:44.394Z,5.05
2022-10-28T23:29:14.198Z,4.60
2022-10-28T23:31:43.439Z,4.68
2022-10-28T23:34:14.004Z,4.88
2022-10-28T23:36:43.133Z,5.07
2022-10-28T23:39:12.838Z,5.28
2022-10-28T23:41:41.820Z,4.80
2022-10-28T23:44:10.918Z,5.57
2022-10-28T23:46:40.118Z,4.32
2022-10-28T23:49:09.385Z,4.68
2022-10-28T23:51:39.876Z,4.78
2022-10-28T23:54:09.094Z,4.40
2022-10-28T23:56:38.175Z,5.25
2022-10-28T23:59:07.234Z,5.22
